Ravine, Pennsylvania
Current Conditions -  °F | °C
As of 12:58 AM on Wednesday 26 Nov 2014 (Local Time) from KMUI Reporting Station
Clear Clear  
Wind Chill: 40°   Ceiling: Unl
Heat Index: 40°   Visibility: 10mi
Dew Point: 31°   Wind: 1mph
Humidity: 68%   Direction: 70°ENE
Pressure: 30.17"   Gusts: NA
Location:  40.57°N, 76.4°W
Report Text: KMUI 260558Z AUTO 07001KT 10SM CLR 05/M01 A3017 RMK AO2 SLP222 T00471008 10053 20009 50012 $
Loading
Personal Weather Stations






























Interactive Weather Map New forecast layout! Learn more

10-Day Weather Forecast

Advertisements
Track Severe Weather on mobile